Dubuque (DBQ/KDBQ)

Map

Destinations

Information

Location
Dubuque, Iowa
Local Time
00:45 / 12:45 am
GMT Time
05:45 / 5:45 am
Gates
Unassigned
No FAA reported delays
METAR KDBQ 190453Z AUTO 21006KT 10SM CLR 11/08 A3001 RMK AO2 SLP161 T01060078
TAF KDBQ 182320Z 1900/1924 20008KT P6SM SCT250 FM191300 13006KT P6SM SKC